createdAt,value
2022-12-25T00:00:03.607Z,0
2022-12-25T00:01:03.805Z,0
2022-12-25T00:02:04.147Z,0
2022-12-25T00:03:04.469Z,0
2022-12-25T00:04:05.107Z,0
2022-12-25T00:05:05.638Z,0
2022-12-25T00:06:05.808Z,0
2022-12-25T00:07:05.965Z,0
2022-12-25T00:08:06.134Z,0
2022-12-25T00:09:06.319Z,0
2022-12-25T00:10:06.470Z,0
2022-12-25T00:11:06.621Z,0
2022-12-25T00:12:06.784Z,0
2022-12-25T00:13:06.949Z,0
2022-12-25T00:14:07.109Z,0
2022-12-25T00:15:07.272Z,0
2022-12-25T00:16:07.509Z,0
2022-12-25T00:17:07.772Z,0
2022-12-25T00:18:07.952Z,0
2022-12-25T00:19:08.139Z,0
2022-12-25T00:20:08.307Z,0
2022-12-25T00:21:08.461Z,0
2022-12-25T00:22:08.601Z,0
2022-12-25T00:23:08.756Z,0
2022-12-25T00:24:08.959Z,0
2022-12-25T00:25:09.187Z,0
2022-12-25T00:26:09.377Z,0
2022-12-25T00:27:09.547Z,0
2022-12-25T00:28:09.711Z,0
2022-12-25T00:29:09.875Z,0
2022-12-25T00:30:10.044Z,0
2022-12-25T00:31:10.325Z,0
2022-12-25T00:32:10.790Z,0
2022-12-25T00:33:10.956Z,0
2022-12-25T00:34:11.114Z,0
2022-12-25T00:35:11.282Z,0
2022-12-25T00:36:11.456Z,0
2022-12-25T00:37:11.632Z,0
2022-12-25T00:38:11.804Z,0
2022-12-25T00:39:11.964Z,0
2022-12-25T00:40:12.126Z,0
2022-12-25T00:41:12.314Z,0
2022-12-25T00:42:12.525Z,0
2022-12-25T00:43:12.872Z,0
2022-12-25T00:44:13.028Z,0
2022-12-25T00:45:15.790Z,0
2022-12-25T00:46:16.303Z,0
2022-12-25T00:47:16.890Z,0
2022-12-25T00:48:17.198Z,0
2022-12-25T00:49:17.344Z,0
2022-12-25T00:50:17.489Z,0
2022-12-25T00:51:17.649Z,0
2022-12-25T00:52:17.802Z,0
2022-12-25T00:53:17.954Z,0
2022-12-25T00:54:18.117Z,0
2022-12-25T00:55:18.276Z,0
2022-12-25T00:56:18.433Z,0
2022-12-25T00:57:18.592Z,0
2022-12-25T00:58:18.760Z,0
2022-12-25T00:59:18.933Z,0
2022-12-25T01:00:19.094Z,0
2022-12-25T01:01:19.375Z,0
2022-12-25T01:02:20.065Z,0
2022-12-25T01:03:20.653Z,0
2022-12-25T01:04:21.035Z,0
2022-12-25T01:05:21.183Z,0
2022-12-25T01:06:21.353Z,0
2022-12-25T01:07:21.515Z,0
2022-12-25T01:08:21.666Z,0
2022-12-25T01:09:21.819Z,0
2022-12-25T01:10:21.986Z,0
2022-12-25T01:11:22.227Z,0
2022-12-25T01:12:22.369Z,0
2022-12-25T01:13:22.527Z,0
2022-12-25T01:14:22.707Z,0
2022-12-25T01:15:22.902Z,0
2022-12-25T01:16:23.090Z,0
2022-12-25T01:17:23.310Z,0
2022-12-25T01:18:23.496Z,0
2022-12-25T01:19:23.655Z,0
2022-12-25T01:20:23.812Z,0
2022-12-25T01:21:23.971Z,0
2022-12-25T01:22:24.137Z,0
2022-12-25T01:23:24.291Z,0
2022-12-25T01:24:24.446Z,0
2022-12-25T01:25:24.602Z,0
2022-12-25T01:26:24.757Z,0
2022-12-25T01:27:24.920Z,0
2022-12-25T01:28:25.099Z,0
2022-12-25T01:29:25.271Z,0
2022-12-25T01:30:25.429Z,0
2022-12-25T01:31:25.654Z,0
2022-12-25T01:32:26.150Z,0
2022-12-25T01:33:26.308Z,0
2022-12-25T01:34:26.469Z,0
2022-12-25T01:35:26.648Z,0
2022-12-25T01:36:26.804Z,0
2022-12-25T01:37:26.987Z,0
2022-12-25T01:38:27.143Z,0
2022-12-25T01:39:27.322Z,0
2022-12-25T01:40:27.537Z,0
2022-12-25T01:41:27.702Z,0
2022-12-25T01:42:27.860Z,0
2022-12-25T01:43:28.008Z,0
2022-12-25T01:44:28.193Z,0
2022-12-25T01:45:28.362Z,0
2022-12-25T01:46:28.600Z,0
2022-12-25T01:47:28.776Z,0
2022-12-25T01:48:28.931Z,0
2022-12-25T01:49:29.106Z,0
2022-12-25T01:50:29.267Z,0
2022-12-25T01:51:29.428Z,0
2022-12-25T01:52:29.703Z,0
2022-12-25T01:53:29.869Z,0
2022-12-25T01:54:30.025Z,0
2022-12-25T01:55:30.172Z,0
2022-12-25T01:56:30.357Z,0
2022-12-25T01:57:30.508Z,0
2022-12-25T01:58:30.699Z,0
2022-12-25T01:59:30.862Z,0
2022-12-25T02:00:31.036Z,0
2022-12-25T02:01:31.260Z,0
2022-12-25T02:02:31.928Z,0
2022-12-25T02:03:32.588Z,0
2022-12-25T02:04:32.990Z,0
2022-12-25T02:05:33.159Z,0
2022-12-25T02:06:33.344Z,0
2022-12-25T02:07:33.515Z,0
2022-12-25T02:08:33.674Z,0
2022-12-25T02:09:33.843Z,0
2022-12-25T02:10:33.998Z,0
2022-12-25T02:11:34.152Z,0
2022-12-25T02:12:34.301Z,0
2022-12-25T02:13:34.478Z,0
2022-12-25T02:14:34.631Z,0
2022-12-25T02:15:34.785Z,0
2022-12-25T02:16:35.028Z,0
2022-12-25T02:17:59.257Z,0
2022-12-25T02:18:59.441Z,0
2022-12-25T02:19:59.599Z,0
2022-12-25T02:20:59.778Z,0
2022-12-25T02:21:59.945Z,0
2022-12-25T02:23:00.128Z,0
2022-12-25T02:24:00.302Z,0
2022-12-25T02:25:00.496Z,0
2022-12-25T02:26:00.664Z,0
2022-12-25T02:27:00.824Z,0
2022-12-25T02:28:00.986Z,0
2022-12-25T02:29:01.154Z,0
2022-12-25T02:30:01.303Z,0
2022-12-25T02:31:01.456Z,0
2022-12-25T02:32:01.710Z,0
2022-12-25T02:33:01.958Z,0
2022-12-25T02:34:02.125Z,0
2022-12-25T02:35:02.321Z,0
2022-12-25T02:36:02.488Z,0
2022-12-25T02:37:02.652Z,0
2022-12-25T02:38:02.801Z,0
2022-12-25T02:39:02.954Z,0
2022-12-25T02:40:03.117Z,0
2022-12-25T02:41:03.289Z,0
2022-12-25T02:42:03.458Z,0
2022-12-25T02:43:03.624Z,0
2022-12-25T02:44:03.807Z,0
2022-12-25T02:45:03.975Z,0
2022-12-25T02:46:04.266Z,0
2022-12-25T02:47:04.836Z,0
2022-12-25T02:48:04.993Z,0
2022-12-25T02:49:05.172Z,0
2022-12-25T02:50:05.331Z,0
2022-12-25T02:51:05.541Z,0
2022-12-25T02:52:05.698Z,0
2022-12-25T02:53:05.889Z,0
2022-12-25T02:54:06.054Z,0
2022-12-25T02:55:06.212Z,0
2022-12-25T02:56:06.388Z,0
2022-12-25T02:57:06.560Z,0
2022-12-25T02:58:06.710Z,0
2022-12-25T02:59:06.883Z,0
2022-12-25T03:00:07.036Z,0
2022-12-25T03:01:07.235Z,0
2022-12-25T03:02:07.646Z,0
2022-12-25T03:03:08.310Z,0
2022-12-25T03:04:08.596Z,0
2022-12-25T03:05:08.785Z,0
2022-12-25T03:06:08.943Z,0
2022-12-25T03:07:09.096Z,0
2022-12-25T03:08:09.241Z,0
2022-12-25T03:09:09.396Z,0
2022-12-25T03:10:09.545Z,0
2022-12-25T03:11:09.710Z,0
2022-12-25T03:12:09.864Z,0
2022-12-25T03:13:10.028Z,0
2022-12-25T03:14:10.187Z,0
2022-12-25T03:15:10.374Z,0
2022-12-25T03:16:10.528Z,0
2022-12-25T03:17:10.883Z,0
2022-12-25T03:18:11.160Z,0
2022-12-25T03:19:11.311Z,0
2022-12-25T03:20:11.479Z,0
2022-12-25T03:21:11.738Z,0
2022-12-25T03:22:11.897Z,0
2022-12-25T03:23:12.097Z,0
2022-12-25T03:24:12.258Z,0
2022-12-25T03:25:12.413Z,0
2022-12-25T03:26:12.572Z,0
2022-12-25T03:27:12.727Z,0
2022-12-25T03:28:12.882Z,0
2022-12-25T03:29:13.055Z,0
2022-12-25T03:30:13.207Z,0
2022-12-25T03:31:13.535Z,0
2022-12-25T03:32:14.252Z,0
2022-12-25T03:33:37.102Z,0
2022-12-25T03:34:46.294Z,0
2022-12-25T03:35:46.469Z,0
2022-12-25T03:36:46.633Z,0
2022-12-25T03:37:46.797Z,0
2022-12-25T03:38:46.977Z,0
2022-12-25T03:39:47.138Z,0
2022-12-25T03:40:47.289Z,0
2022-12-25T03:41:47.455Z,0
2022-12-25T03:42:47.633Z,0
2022-12-25T03:43:47.802Z,0
2022-12-25T03:44:47.948Z,0
2022-12-25T03:45:48.152Z,0
2022-12-25T03:46:48.470Z,0
2022-12-25T03:47:48.641Z,0
2022-12-25T03:48:48.799Z,0
2022-12-25T03:49:48.946Z,0
2022-12-25T03:50:49.091Z,0
2022-12-25T03:51:49.250Z,0
2022-12-25T03:52:49.408Z,0
2022-12-25T03:53:49.559Z,0
2022-12-25T03:54:49.726Z,0
2022-12-25T03:55:49.886Z,0
2022-12-25T03:56:50.051Z,0
2022-12-25T03:57:50.198Z,0
2022-12-25T03:58:50.369Z,0
2022-12-25T03:59:50.531Z,0
2022-12-25T04:00:50.679Z,0
2022-12-25T04:01:50.907Z,0
2022-12-25T04:02:51.450Z,0
2022-12-25T04:03:52.041Z,0
2022-12-25T04:04:52.299Z,0
2022-12-25T04:05:52.452Z,0
2022-12-25T04:06:52.616Z,0
2022-12-25T04:07:52.760Z,0
2022-12-25T04:08:52.947Z,0
2022-12-25T04:09:53.104Z,0
2022-12-25T04:10:53.492Z,0
2022-12-25T04:11:57.391Z,0
2022-12-25T04:13:03.504Z,0
2022-12-25T04:14:03.675Z,0
2022-12-25T04:15:03.846Z,0
2022-12-25T04:16:04.070Z,0
2022-12-25T04:17:04.380Z,0
2022-12-25T04:18:04.520Z,0
2022-12-25T04:19:04.743Z,0
2022-12-25T04:20:04.878Z,0
2022-12-25T04:21:05.052Z,0
2022-12-25T04:22:05.206Z,0
2022-12-25T04:23:05.357Z,0
2022-12-25T04:24:05.520Z,0
2022-12-25T04:25:05.669Z,0
2022-12-25T04:26:05.853Z,0
2022-12-25T04:27:06.008Z,0
2022-12-25T04:28:06.181Z,0
2022-12-25T04:29:06.352Z,0
2022-12-25T04:30:06.531Z,0
2022-12-25T04:31:06.808Z,0
2022-12-25T04:32:07.081Z,0
2022-12-25T04:33:07.244Z,0
2022-12-25T04:34:07.404Z,0
2022-12-25T04:35:07.581Z,0
2022-12-25T04:36:07.753Z,0
2022-12-25T04:37:07.929Z,0
2022-12-25T04:38:08.094Z,0
2022-12-25T04:39:08.244Z,0
2022-12-25T04:40:08.394Z,0
2022-12-25T04:41:08.554Z,0
2022-12-25T04:42:08.719Z,0
2022-12-25T04:43:08.880Z,0
2022-12-25T04:44:09.043Z,0
2022-12-25T04:45:09.252Z,0
2022-12-25T04:46:09.453Z,0
2022-12-25T04:47:11.578Z,0
2022-12-25T04:48:12.093Z,0
2022-12-25T04:49:12.255Z,0
2022-12-25T04:50:12.415Z,0
2022-12-25T04:51:12.599Z,0
2022-12-25T04:52:12.761Z,0
2022-12-25T04:53:12.981Z,0
2022-12-25T04:54:13.143Z,0
2022-12-25T04:55:13.310Z,0
2022-12-25T04:56:13.506Z,0
2022-12-25T04:57:13.667Z,0
2022-12-25T04:58:13.816Z,0
2022-12-25T04:59:13.976Z,0
2022-12-25T05:00:14.145Z,0
2022-12-25T05:01:14.591Z,0
2022-12-25T05:02:15.604Z,0
2022-12-25T05:03:16.150Z,0
2022-12-25T05:04:16.792Z,0
2022-12-25T05:05:16.947Z,0
2022-12-25T05:06:17.112Z,0
2022-12-25T05:07:17.262Z,0
2022-12-25T05:08:17.420Z,0
2022-12-25T05:09:17.573Z,0
2022-12-25T05:10:17.739Z,0
2022-12-25T05:11:17.909Z,0
2022-12-25T05:12:18.077Z,0
2022-12-25T05:13:18.277Z,0
2022-12-25T05:14:18.495Z,0
2022-12-25T05:15:19.035Z,0
2022-12-25T05:16:19.231Z,0
2022-12-25T05:17:20.106Z,0
2022-12-25T05:18:20.309Z,0
2022-12-25T05:19:20.458Z,0
2022-12-25T05:20:20.618Z,0
2022-12-25T05:21:20.768Z,0
2022-12-25T05:22:20.935Z,0
2022-12-25T05:23:21.116Z,0
2022-12-25T05:24:21.272Z,0
2022-12-25T05:25:21.467Z,0
2022-12-25T05:26:21.623Z,0
2022-12-25T05:27:21.774Z,0
2022-12-25T05:28:21.931Z,0
2022-12-25T05:29:22.105Z,0
2022-12-25T05:30:22.383Z,0
2022-12-25T05:31:22.653Z,0
2022-12-25T05:32:23.073Z,0
2022-12-25T05:33:23.261Z,0
2022-12-25T05:34:23.542Z,0
2022-12-25T05:35:23.727Z,0
2022-12-25T05:36:23.896Z,0
2022-12-25T05:37:24.059Z,0
2022-12-25T05:38:24.198Z,0
2022-12-25T05:39:24.375Z,0
2022-12-25T05:40:24.542Z,0
2022-12-25T05:41:27.861Z,0
2022-12-25T05:42:35.061Z,0
2022-12-25T05:43:35.238Z,0
2022-12-25T05:44:35.399Z,0
2022-12-25T05:45:35.562Z,0
2022-12-25T05:46:35.781Z,0
2022-12-25T05:47:36.176Z,0
2022-12-25T05:48:36.325Z,0
2022-12-25T05:49:36.484Z,0
2022-12-25T05:50:36.634Z,0
2022-12-25T05:51:36.797Z,0
2022-12-25T05:52:36.963Z,0
2022-12-25T05:53:37.130Z,0
2022-12-25T05:54:37.318Z,0
2022-12-25T05:55:37.500Z,0
2022-12-25T05:56:37.671Z,0
2022-12-25T05:57:37.855Z,0
2022-12-25T05:58:38.035Z,0
2022-12-25T05:59:38.201Z,0
2022-12-25T06:00:38.374Z,0
2022-12-25T06:01:38.653Z,0
2022-12-25T06:02:39.342Z,0
2022-12-25T06:03:40.375Z,0
2022-12-25T06:04:40.780Z,0
2022-12-25T06:05:40.951Z,0
2022-12-25T06:06:41.129Z,0
2022-12-25T06:07:41.301Z,0
2022-12-25T06:08:41.493Z,0
2022-12-25T06:09:41.684Z,0
2022-12-25T06:10:41.843Z,0
2022-12-25T06:11:42.018Z,0
2022-12-25T06:12:42.197Z,0
2022-12-25T06:13:42.373Z,0
2022-12-25T06:14:42.564Z,0
2022-12-25T06:15:42.747Z,0
2022-12-25T06:16:42.980Z,0
2022-12-25T06:17:43.449Z,0
2022-12-25T06:18:43.617Z,0
2022-12-25T06:19:43.823Z,0
2022-12-25T06:20:44.030Z,0
2022-12-25T06:21:44.176Z,0
2022-12-25T06:22:44.333Z,0
2022-12-25T06:23:44.930Z,0
2022-12-25T06:24:45.318Z,0
2022-12-25T06:25:45.485Z,0
2022-12-25T06:26:45.653Z,0
2022-12-25T06:27:45.819Z,0
2022-12-25T06:28:45.994Z,0
2022-12-25T06:29:46.153Z,0
2022-12-25T06:30:46.304Z,0
2022-12-25T06:31:46.531Z,0
2022-12-25T06:32:46.863Z,0
2022-12-25T06:33:47.025Z,0
2022-12-25T06:34:47.178Z,0
2022-12-25T06:35:47.328Z,0
2022-12-25T06:36:47.487Z,0
2022-12-25T06:37:47.677Z,0
2022-12-25T06:38:47.840Z,0
2022-12-25T06:39:47.994Z,0
2022-12-25T06:40:48.203Z,0
2022-12-25T06:41:48.355Z,0
2022-12-25T06:42:48.536Z,0
2022-12-25T06:43:48.708Z,0
2022-12-25T06:44:48.858Z,2
2022-12-25T06:45:49.079Z,3
2022-12-25T06:46:49.436Z,4
2022-12-25T06:47:49.593Z,6
2022-12-25T06:48:50.089Z,7
2022-12-25T06:49:50.465Z,9
2022-12-25T06:50:50.601Z,11
2022-12-25T06:51:50.766Z,13
2022-12-25T06:52:50.913Z,17
2022-12-25T06:53:51.064Z,21
2022-12-25T06:54:51.245Z,27
2022-12-25T06:55:51.436Z,33
2022-12-25T06:56:51.615Z,37
2022-12-25T06:57:51.778Z,46
2022-12-25T06:58:51.966Z,51
2022-12-25T06:59:55.264Z,57
2022-12-25T07:00:55.933Z,63
2022-12-25T07:01:56.406Z,70
2022-12-25T07:02:57.261Z,70
2022-12-25T07:03:57.821Z,70
2022-12-25T07:04:57.989Z,70
2022-12-25T07:05:58.150Z,77
2022-12-25T07:07:00.768Z,77
2022-12-25T07:08:09.758Z,82
2022-12-25T07:09:09.918Z,82
2022-12-25T07:10:10.114Z,82
2022-12-25T07:11:10.289Z,82
2022-12-25T07:12:10.448Z,84.96
2022-12-25T07:13:10.606Z,84.96
2022-12-25T07:14:10.760Z,84.96
2022-12-25T07:15:10.939Z,94
2022-12-25T07:16:11.185Z,94
2022-12-25T07:17:11.546Z,110
2022-12-25T07:18:11.718Z,110
2022-12-25T07:19:11.874Z,110
2022-12-25T07:20:12.032Z,130
2022-12-25T07:21:12.231Z,130
2022-12-25T07:22:12.597Z,150
2022-12-25T07:23:12.748Z,169.92
2022-12-25T07:24:12.911Z,169.92
2022-12-25T07:25:13.073Z,189.92
2022-12-25T07:26:13.253Z,209.92
2022-12-25T07:27:13.448Z,240
2022-12-25T07:28:13.625Z,240
2022-12-25T07:29:13.840Z,269.92
2022-12-25T07:30:13.990Z,300
2022-12-25T07:31:14.250Z,329.92
2022-12-25T07:32:14.938Z,329.92
2022-12-25T07:33:15.370Z,329.92
2022-12-25T07:34:15.534Z,369.92
2022-12-25T07:35:15.683Z,409.92
2022-12-25T07:36:15.835Z,409.92
2022-12-25T07:37:16.013Z,459.84
2022-12-25T07:38:16.182Z,459.84
2022-12-25T07:39:16.387Z,459.84
2022-12-25T07:40:16.562Z,459.84
2022-12-25T07:41:16.730Z,459.84
2022-12-25T07:42:20.515Z,459.84
2022-12-25T07:43:25.854Z,509.76
2022-12-25T07:44:26.009Z,509.76
2022-12-25T07:45:26.203Z,509.76
2022-12-25T07:46:26.516Z,509.76
2022-12-25T07:47:26.867Z,569.92
2022-12-25T07:48:27.028Z,569.92
2022-12-25T07:49:27.171Z,569.92
2022-12-25T07:50:27.354Z,569.92
2022-12-25T07:51:27.565Z,569.92
2022-12-25T07:52:27.721Z,569.92
2022-12-25T07:53:27.890Z,629.76
2022-12-25T07:54:28.049Z,629.76
2022-12-25T07:55:28.236Z,629.76
2022-12-25T07:56:28.406Z,629.76
2022-12-25T07:57:28.596Z,560
2022-12-25T07:58:28.764Z,499.84
2022-12-25T07:59:28.946Z,499.84
2022-12-25T08:00:29.119Z,499.84
2022-12-25T08:01:29.472Z,499.84
2022-12-25T08:02:30.936Z,499.84
2022-12-25T08:03:32.084Z,549.76
2022-12-25T08:04:33.164Z,609.92
2022-12-25T08:05:33.323Z,679.68
2022-12-25T08:06:33.506Z,679.68
2022-12-25T08:07:33.694Z,679.68
2022-12-25T08:08:33.873Z,679.68
2022-12-25T08:09:34.041Z,749.44
2022-12-25T08:10:34.199Z,749.44
2022-12-25T08:11:34.344Z,749.44
2022-12-25T08:12:34.499Z,749.44
2022-12-25T08:13:34.668Z,749.44
2022-12-25T08:14:34.822Z,749.44
2022-12-25T08:15:35.001Z,749.44
2022-12-25T08:16:35.199Z,829.44
2022-12-25T08:17:35.598Z,829.44
2022-12-25T08:18:35.799Z,829.44
2022-12-25T08:19:35.971Z,739.84
2022-12-25T08:20:36.141Z,739.84
2022-12-25T08:21:36.329Z,739.84
2022-12-25T08:22:36.519Z,739.84
2022-12-25T08:23:36.676Z,739.84
2022-12-25T08:24:36.838Z,739.84
2022-12-25T08:25:36.996Z,739.84
2022-12-25T08:26:37.184Z,819.84
2022-12-25T08:27:37.349Z,819.84
2022-12-25T08:28:37.551Z,919.68
2022-12-25T08:29:37.710Z,1019.52
2022-12-25T08:30:37.876Z,1019.52
2022-12-25T08:31:42.571Z,1019.52
2022-12-25T08:32:47.091Z,1139.84
2022-12-25T08:33:47.244Z,1139.84
2022-12-25T08:34:47.403Z,1139.84
2022-12-25T08:35:47.565Z,1139.84
2022-12-25T08:36:47.733Z,1139.84
2022-12-25T08:37:47.892Z,1139.84
2022-12-25T08:38:48.046Z,1139.84
2022-12-25T08:39:48.201Z,1139.84
2022-12-25T08:40:48.376Z,1259.52
2022-12-25T08:41:48.533Z,1259.52
2022-12-25T08:42:48.691Z,1259.52
2022-12-25T08:43:48.870Z,1399.04
2022-12-25T08:44:49.019Z,1399.04
2022-12-25T08:45:49.237Z,1399.04
2022-12-25T08:46:49.651Z,1399.04
2022-12-25T08:47:49.841Z,1399.04
2022-12-25T08:48:49.993Z,1399.04
2022-12-25T08:49:50.166Z,1399.04
2022-12-25T08:50:51.017Z,1399.04
2022-12-25T08:51:51.211Z,1399.04
2022-12-25T08:52:51.365Z,1399.04
2022-12-25T08:53:51.519Z,1440
2022-12-25T08:54:51.684Z,1440
2022-12-25T08:55:51.834Z,1440
2022-12-25T08:56:54.103Z,1440
2022-12-25T08:58:03.231Z,1319.68
2022-12-25T08:59:03.392Z,1319.68
2022-12-25T09:00:03.548Z,1319.68
2022-12-25T09:01:03.739Z,1319.68
2022-12-25T09:02:04.122Z,1319.68
2022-12-25T09:03:04.750Z,1319.68
2022-12-25T09:04:05.459Z,1359.36
2022-12-25T09:05:05.658Z,1359.36
2022-12-25T09:06:05.813Z,1359.36
2022-12-25T09:07:05.974Z,1359.36
2022-12-25T09:08:06.151Z,1359.36
2022-12-25T09:09:06.315Z,1359.36
2022-12-25T09:10:06.478Z,1498.88
2022-12-25T09:11:06.659Z,1498.88
2022-12-25T09:12:06.814Z,1498.88
2022-12-25T09:13:06.999Z,1498.88
2022-12-25T09:14:07.173Z,1498.88
2022-12-25T09:15:07.336Z,1658.88
2022-12-25T09:16:07.608Z,1658.88
2022-12-25T09:17:07.961Z,1839.36
2022-12-25T09:18:08.131Z,1839.36
2022-12-25T09:19:08.288Z,1839.36
2022-12-25T09:20:08.468Z,2059.52
2022-12-25T09:21:08.652Z,2059.52
2022-12-25T09:22:08.830Z,2279.68
2022-12-25T09:23:13.670Z,2279.68
2022-12-25T09:24:14.702Z,2379.52
2022-12-25T09:25:14.861Z,2379.52
2022-12-25T09:26:15.017Z,2379.52
2022-12-25T09:27:15.253Z,2379.52
2022-12-25T09:28:15.424Z,2379.52
2022-12-25T09:29:15.568Z,2379.52
2022-12-25T09:30:15.731Z,2379.52
2022-12-25T09:31:15.957Z,2379.52
2022-12-25T09:32:16.411Z,2179.84
2022-12-25T09:33:16.577Z,2179.84
2022-12-25T09:34:18.895Z,2179.84
2022-12-25T09:35:19.512Z,2179.84
2022-12-25T09:36:19.681Z,2179.84
2022-12-25T09:37:19.830Z,2179.84
2022-12-25T09:38:20.074Z,2179.84
2022-12-25T09:39:20.235Z,2179.84
2022-12-25T09:40:20.411Z,2179.84
2022-12-25T09:41:20.889Z,2179.84
2022-12-25T09:42:21.045Z,2240
2022-12-25T09:43:21.210Z,2240
2022-12-25T09:44:21.389Z,2240
2022-12-25T09:45:21.534Z,2240
2022-12-25T09:46:21.782Z,2240
2022-12-25T09:47:22.209Z,2240
2022-12-25T09:48:22.377Z,2240
2022-12-25T09:49:22.533Z,1999.36
2022-12-25T09:50:22.720Z,1999.36
2022-12-25T09:51:22.884Z,1999.36
2022-12-25T09:52:23.043Z,1999.36
2022-12-25T09:53:23.195Z,1999.36
2022-12-25T09:54:23.352Z,1999.36
2022-12-25T09:55:23.517Z,1999.36
2022-12-25T09:56:23.674Z,1799.68
2022-12-25T09:57:23.839Z,1799.68
2022-12-25T09:58:23.991Z,1799.68
2022-12-25T09:59:24.185Z,1799.68
2022-12-25T10:00:24.359Z,1799.68
2022-12-25T10:01:24.602Z,1799.68
2022-12-25T10:02:25.181Z,1799.68
2022-12-25T10:03:25.943Z,1799.68
2022-12-25T10:04:26.407Z,1799.68
2022-12-25T10:05:26.571Z,1818.88
2022-12-25T10:06:26.724Z,1818.88
2022-12-25T10:07:26.910Z,1818.88
2022-12-25T10:08:27.094Z,1818.88
2022-12-25T10:09:27.251Z,1818.88
2022-12-25T10:10:27.419Z,1818.88
2022-12-25T10:11:27.567Z,1818.88
2022-12-25T10:12:27.753Z,2019.84
2022-12-25T10:13:27.906Z,2019.84
2022-12-25T10:14:28.065Z,2019.84
2022-12-25T10:15:28.328Z,2019.84
2022-12-25T10:16:28.615Z,2019.84
2022-12-25T10:17:29.047Z,2019.84
2022-12-25T10:18:29.208Z,2019.84
2022-12-25T10:19:29.375Z,2019.84
2022-12-25T10:20:29.524Z,2019.84
2022-12-25T10:21:29.678Z,2019.84
2022-12-25T10:22:29.829Z,2219.52
2022-12-25T10:23:29.983Z,2219.52
2022-12-25T10:24:30.190Z,2219.52
2022-12-25T10:25:30.340Z,2219.52
2022-12-25T10:26:30.512Z,2219.52
2022-12-25T10:27:30.689Z,2458.88
2022-12-25T10:28:30.860Z,2458.88
2022-12-25T10:29:31.023Z,2718.72
2022-12-25T10:30:31.196Z,2718.72
2022-12-25T10:31:31.465Z,2718.72
2022-12-25T10:32:31.824Z,3018.24
2022-12-25T10:33:31.982Z,3018.24
2022-12-25T10:34:32.159Z,3018.24
2022-12-25T10:35:32.305Z,3018.24
2022-12-25T10:36:32.463Z,3338.24
2022-12-25T10:37:32.637Z,3338.24
2022-12-25T10:38:32.810Z,3338.24
2022-12-25T10:39:32.997Z,3338.24
2022-12-25T10:40:33.183Z,2997.76
2022-12-25T10:41:33.334Z,2997.76
2022-12-25T10:42:33.484Z,2698.24
2022-12-25T10:43:33.653Z,2698.24
2022-12-25T10:44:33.825Z,2698.24
2022-12-25T10:45:33.972Z,2698.24
2022-12-25T10:46:34.215Z,2419.2
2022-12-25T10:47:34.631Z,2419.2
2022-12-25T10:48:34.803Z,2419.2
2022-12-25T10:49:35.038Z,2419.2
2022-12-25T10:50:35.217Z,2419.2
2022-12-25T10:51:35.391Z,2419.2
2022-12-25T10:52:35.575Z,2419.2
2022-12-25T10:53:35.729Z,2419.2
2022-12-25T10:54:35.894Z,2419.2
2022-12-25T10:55:36.056Z,2419.2
2022-12-25T10:56:36.234Z,2240
2022-12-25T10:57:36.391Z,2240
2022-12-25T10:58:36.541Z,2519.04
2022-12-25T10:59:36.713Z,2519.04
2022-12-25T11:00:36.877Z,2519.04
2022-12-25T11:01:37.115Z,2798.08
2022-12-25T11:02:37.884Z,2798.08
2022-12-25T11:03:38.632Z,2798.08
2022-12-25T11:04:39.002Z,2798.08
2022-12-25T11:05:39.193Z,2798.08
2022-12-25T11:06:39.373Z,2519.04
2022-12-25T11:07:39.537Z,2519.04
2022-12-25T11:08:39.706Z,2519.04
2022-12-25T11:09:39.865Z,2519.04
2022-12-25T11:10:40.005Z,2519.04
2022-12-25T11:11:40.171Z,2519.04
2022-12-25T11:12:40.325Z,2777.6
2022-12-25T11:13:40.491Z,2777.6
2022-12-25T11:14:40.791Z,2777.6
2022-12-25T11:15:41.004Z,2777.6
2022-12-25T11:16:41.459Z,3079.68
2022-12-25T11:17:41.807Z,3399.68
2022-12-25T11:18:41.979Z,3799.04
2022-12-25T11:19:42.134Z,4218.88
2022-12-25T11:20:47.021Z,4659.2
2022-12-25T11:21:47.483Z,4838.4
2022-12-25T11:22:47.633Z,5178.88
2022-12-25T11:23:47.785Z,5178.88
2022-12-25T11:24:47.939Z,5178.88
2022-12-25T11:25:48.122Z,5178.88
2022-12-25T11:26:48.277Z,5698.56
2022-12-25T11:27:51.922Z,6415.36
2022-12-25T11:28:53.825Z,7116.8
2022-12-25T11:29:53.977Z,7116.8
2022-12-25T11:30:54.211Z,6359.04
2022-12-25T11:31:54.494Z,6359.04
2022-12-25T11:32:54.982Z,5657.6
2022-12-25T11:33:55.140Z,5657.6
2022-12-25T11:34:55.347Z,5657.6
2022-12-25T11:35:55.571Z,5058.56
2022-12-25T11:36:55.742Z,5058.56
2022-12-25T11:37:55.946Z,5058.56
2022-12-25T11:38:56.095Z,5616.64
2022-12-25T11:39:56.246Z,6195.2
2022-12-25T11:40:56.388Z,6855.68
2022-12-25T11:41:56.540Z,6855.68
2022-12-25T11:42:57.553Z,7577.6
2022-12-25T11:44:08.182Z,7516.16
2022-12-25T11:45:08.329Z,7516.16
2022-12-25T11:46:08.519Z,9779.2
2022-12-25T11:47:08.825Z,10997.76
2022-12-25T11:48:08.979Z,10997.76
2022-12-25T11:49:09.135Z,10997.76
2022-12-25T11:50:09.285Z,12195.84
2022-12-25T11:51:09.454Z,12195.84
2022-12-25T11:52:09.618Z,15390.72
2022-12-25T11:53:09.796Z,18995.2
2022-12-25T11:54:09.944Z,16998.4
2022-12-25T11:55:10.103Z,23388.16
2022-12-25T11:56:10.273Z,28385.28
2022-12-25T11:57:10.427Z,28385.28
2022-12-25T11:58:10.578Z,24186.88
2022-12-25T11:59:15.000Z,18790.4
2022-12-25T12:00:18.882Z,24985.6
2022-12-25T12:01:19.131Z,31395.84
2022-12-25T12:02:19.620Z,27381.76
2022-12-25T12:03:20.229Z,23797.76
2022-12-25T12:04:24.360Z,26583.04
2022-12-25T12:05:36.896Z,27197.44
2022-12-25T12:06:37.071Z,27197.44
2022-12-25T12:07:37.219Z,23592.96
2022-12-25T12:08:37.407Z,26787.84
2022-12-25T12:09:37.588Z,36392.96
2022-12-25T12:10:37.744Z,32194.56
2022-12-25T12:11:37.900Z,22589.44
2022-12-25T12:12:40.649Z,16199.68
2022-12-25T12:13:49.427Z,15595.52
2022-12-25T12:14:49.579Z,20592.64
2022-12-25T12:15:49.746Z,22794.24
2022-12-25T12:16:49.994Z,22794.24
2022-12-25T12:17:50.399Z,22794.24
2022-12-25T12:18:51.019Z,25600
2022-12-25T12:19:51.276Z,25395.2
2022-12-25T12:20:51.427Z,20398.08
2022-12-25T12:21:51.583Z,15790.08
2022-12-25T12:22:51.758Z,19793.92
2022-12-25T12:23:51.916Z,17592.32
2022-12-25T12:24:52.077Z,15595.52
2022-12-25T12:25:52.223Z,15595.52
2022-12-25T12:26:52.372Z,13998.08
2022-12-25T12:27:52.525Z,12595.2
2022-12-25T12:28:52.673Z,12595.2
2022-12-25T12:29:52.844Z,12595.2
2022-12-25T12:30:53.002Z,9937.92
2022-12-25T12:31:53.230Z,8719.36
2022-12-25T12:32:53.569Z,7838.72
2022-12-25T12:33:53.871Z,7040
2022-12-25T12:34:55.271Z,7040
2022-12-25T12:35:55.455Z,10398.72
2022-12-25T12:36:55.667Z,11991.04
2022-12-25T12:37:55.817Z,10792.96
2022-12-25T12:38:55.974Z,9579.52
2022-12-25T12:39:56.151Z,9579.52
2022-12-25T12:40:56.323Z,9579.52
2022-12-25T12:41:56.487Z,7680
2022-12-25T12:42:56.645Z,6819.84
2022-12-25T12:43:56.845Z,6056.96
2022-12-25T12:44:57.018Z,6056.96
2022-12-25T12:45:57.224Z,6056.96
2022-12-25T12:46:57.537Z,6056.96
2022-12-25T12:47:57.785Z,6056.96
2022-12-25T12:48:57.945Z,6056.96
2022-12-25T12:49:58.093Z,6717.44
2022-12-25T12:50:58.323Z,7418.88
2022-12-25T12:51:58.473Z,7418.88
2022-12-25T12:52:58.630Z,6579.2
2022-12-25T12:53:58.776Z,6579.2
2022-12-25T12:54:58.937Z,7316.48
2022-12-25T12:55:59.168Z,8058.88
2022-12-25T12:56:59.344Z,7055.36
2022-12-25T12:57:59.522Z,7055.36
2022-12-25T12:58:59.686Z,7055.36
2022-12-25T13:00:03.237Z,6256.64
2022-12-25T13:01:11.509Z,5596.16
2022-12-25T13:02:12.257Z,5596.16
2022-12-25T13:03:12.765Z,7577.6
2022-12-25T13:04:13.316Z,9277.44
2022-12-25T13:05:13.480Z,10398.72
2022-12-25T13:06:13.635Z,10398.72
2022-12-25T13:07:13.795Z,9175.04
2022-12-25T13:08:13.945Z,8197.12
2022-12-25T13:09:14.117Z,7357.44
2022-12-25T13:10:14.275Z,5898.24
2022-12-25T13:11:14.441Z,5199.36
2022-12-25T13:12:14.599Z,4579.84
2022-12-25T13:13:14.755Z,4098.56
2022-12-25T13:14:14.917Z,3637.76
2022-12-25T13:15:15.087Z,2859.52
2022-12-25T13:16:15.260Z,2560
2022-12-25T13:17:15.585Z,2259.2
2022-12-25T13:18:15.743Z,2019.84
2022-12-25T13:19:15.906Z,2019.84
2022-12-25T13:20:16.063Z,1779.2
2022-12-25T13:21:16.222Z,1779.2
2022-12-25T13:22:16.377Z,1779.2
2022-12-25T13:23:16.545Z,1779.2
2022-12-25T13:24:16.721Z,1779.2
2022-12-25T13:25:16.871Z,1779.2
2022-12-25T13:26:17.025Z,1779.2
2022-12-25T13:27:17.230Z,1779.2
2022-12-25T13:28:17.562Z,1779.2
2022-12-25T13:29:17.885Z,1779.2
2022-12-25T13:30:18.045Z,1859.84
2022-12-25T13:31:18.274Z,1859.84
2022-12-25T13:32:18.846Z,2080
2022-12-25T13:33:19.314Z,2319.36
2022-12-25T13:34:19.825Z,2560